Time;durP1;ratioP1;P1;durP2;ratioP2;P2;SDS_P1;SDS_P2;PMS_P1;PMS_P2;Temp;Humidity;BMP_temperature;BMP_pressure;BME280_temperature;BME280_humidity;BME280_pressure;Samples;Min_cycle;Max_cycle;Signal;HPM_P1;HPM_P2
2022/08/26 00:02:00;;;;;;;6.55;3.55;;;19.70;99.90;;;19.67;90.42;96944.63;5011005;28;20034;-44
2022/08/26 00:04:26;;;;;;;5.15;3.80;;;19.70;99.90;;;19.64;91.08;96941.25;5009886;28;20404;-47
2022/08/26 00:06:55;;;;;;;6.03;3.90;;;19.70;99.90;;;19.61;91.14;96937.97;5009749;28;20040;-46
2022/08/26 00:09:23;;;;;;;7.28;4.13;;;19.60;99.90;;;19.58;91.26;96928.38;5013732;28;20042;-48
2022/08/26 00:11:48;;;;;;;4.60;3.97;;;19.60;99.90;;;19.56;91.26;96927.66;5010431;28;20026;-47
2022/08/26 00:14:15;;;;;;;6.05;4.50;;;19.60;99.90;;;19.56;91.50;96930.31;5008126;28;20083;-45
2022/08/26 00:16:43;;;;;;;7.45;4.50;;;19.50;99.90;;;19.55;91.60;96933.13;5012640;28;20029;-45
2022/08/26 00:19:09;;;;;;;5.43;4.47;;;19.50;99.90;;;19.57;91.34;96929.34;5012633;28;20037;-45
2022/08/26 00:21:35;;;;;;;5.15;3.60;;;19.60;99.90;;;19.59;90.92;96927.38;5009773;28;20041;-49
2022/08/26 00:24:00;;;;;;;4.40;3.60;;;19.60;99.90;;;19.61;90.67;96928.13;5007978;28;20022;-48
2022/08/26 00:26:26;;;;;;;4.68;3.85;;;19.60;99.90;;;19.62;90.56;96924.47;5009449;28;20472;-46
2022/08/26 00:28:52;;;;;;;3.83;3.50;;;19.60;99.90;;;19.63;90.60;96922.63;5007539;28;20041;-48
2022/08/26 00:31:17;;;;;;;4.63;3.50;;;19.60;99.90;;;19.61;90.72;96924.59;5009308;28;20037;-50
2022/08/26 00:33:43;;;;;;;4.85;3.92;;;19.60;99.90;;;19.58;91.05;96925.69;5012417;28;20033;-45
2022/08/26 00:36:09;;;;;;;4.10;3.42;;;19.60;99.90;;;19.55;91.16;96925.94;5012840;28;20056;-47
2022/08/26 00:38:36;;;;;;;6.10;3.70;;;19.60;99.90;;;19.52;91.69;96931.53;4996504;28;20497;-47
2022/08/26 00:41:03;;;;;;;6.10;4.13;;;19.50;99.90;;;19.48;91.78;96932.75;4996590;28;20030;-46
2022/08/26 00:43:33;;;;;;;5.85;3.78;;;19.50;99.90;;;19.46;92.02;96932.03;5010878;28;20065;-46
2022/08/26 00:46:19;;;;;;;5.30;4.18;;;19.50;99.90;;;19.46;91.52;96935.56;5012592;28;20041;-46
2022/08/26 00:48:49;;;;;;;3.60;3.15;;;19.50;99.90;;;19.45;91.31;96933.88;5011813;28;20029;-48
2022/08/26 00:51:20;;;;;;;4.78;3.88;;;19.40;99.90;;;19.42;91.16;96934.09;4993882;28;20089;-48
2022/08/26 00:54:06;;;;;;;3.78;3.33;;;19.40;99.90;;;19.42;90.58;96930.59;5008970;28;20278;-45
2022/08/26 00:56:37;;;;;;;4.05;3.38;;;19.40;99.90;;;19.40;90.31;96936.06;5012477;28;20029;-46
2022/08/26 00:59:10;;;;;;;4.13;3.60;;;19.40;99.90;;;19.39;91.08;96938.84;4997924;28;20180;-46
2022/08/26 01:01:37;;;;;;;4.22;3.72;;;19.40;99.90;;;19.32;91.98;96937.63;4995191;28;20579;-47
2022/08/26 01:04:03;;;;;;;4.28;3.80;;;19.30;99.90;;;19.27;92.46;96936.19;5000010;28;20034;-46
2022/08/26 01:06:30;;;;;;;3.83;3.42;;;19.30;99.90;;;19.24;92.48;96943.59;5014793;28;20540;-49
2022/08/26 01:08:56;;;;;;;4.90;3.47;;;19.20;99.90;;;19.23;92.52;96940.06;5013549;28;20168;-47
2022/08/26 01:11:23;;;;;;;4.38;3.30;;;19.30;99.90;;;19.23;92.32;96939.22;5013340;28;20601;-47
2022/08/26 01:13:53;;;;;;;4.50;3.83;;;19.30;99.90;;;19.22;92.32;96941.06;5008974;28;20172;-48
2022/08/26 01:16:20;;;;;;;5.85;3.13;;;19.20;99.90;;;19.19;92.55;96935.94;4989781;28;20046;-46
2022/08/26 01:18:47;;;;;;;4.32;3.15;;;19.30;99.90;;;19.22;92.40;96943.72;4985054;28;20120;-46
2022/08/26 01:21:28;;;;;;;4.53;3.50;;;19.20;99.90;;;19.19;92.65;96943.13;5013582;28;20032;-48
2022/08/26 01:23:56;;;;;;;4.32;3.42;;;19.20;99.90;;;19.14;93.00;96934.59;4996258;28;20053;-47
2022/08/26 01:26:27;;;;;;;5.75;3.28;;;19.20;99.90;;;19.13;93.62;96939.09;4998211;28;20025;-48
2022/08/26 01:28:57;;;;;;;4.22;3.55;;;19.20;99.90;;;19.00;93.55;96917.81;5016264;28;20030;-45
2022/08/26 01:31:29;;;;;;;5.70;4.07;;;19.10;99.90;;;19.08;93.91;96935.94;4996360;28;20038;-46
2022/08/26 01:34:19;;;;;;;5.30;4.15;;;19.10;99.90;;;19.09;93.95;96932.28;4994177;28;20478;-47
2022/08/26 01:36:50;;;;;;;5.03;3.70;;;19.10;99.90;;;19.06;94.97;96935.22;5015285;28;20103;-47
2022/08/26 01:39:16;;;;;;;5.43;3.88;;;19.10;99.90;;;19.04;94.94;96934.47;4998702;28;20041;-47
2022/08/26 01:41:44;;;;;;;10.48;3.97;;;19.10;99.90;;;19.04;94.75;96930.00;5000174;28;20037;-45
2022/08/26 01:44:17;;;;;;;6.22;3.90;;;19.10;99.90;;;19.02;95.06;96931.94;4997632;28;20222;-45
2022/08/26 01:46:45;;;;;;;4.85;3.80;;;19.10;99.90;;;18.98;95.22;96924.28;4999344;28;20025;-48
2022/08/26 01:49:12;;;;;;;5.05;4.00;;;19.00;99.90;;;19.00;95.82;96933.00;4997425;28;20034;-46
2022/08/26 01:51:39;;;;;;;6.47;3.97;;;19.00;99.90;;;18.97;96.28;96933.25;5011433;28;20411;-46
2022/08/26 01:54:07;;;;;;;7.00;4.28;;;19.00;99.90;;;18.94;96.44;96937.03;5013587;28;20033;-45
2022/08/26 01:56:34;;;;;;;7.38;3.83;;;19.00;99.90;;;18.94;97.08;96941.53;4997407;28;20493;-46
2022/08/26 01:59:06;;;;;;;5.15;4.00;;;19.00;99.90;;;18.89;97.00;96929.34;5015431;28;20037;-45
2022/08/26 02:01:32;;;;;;;8.38;3.97;;;18.90;99.90;;;18.85;97.22;96935.91;5014550;28;20571;-45
2022/08/26 02:04:33;;;;;;;6.30;4.22;;;18.90;99.90;;;18.81;97.30;96933.59;5024455;22;20127;-48
2022/08/26 02:07:04;;;;;;;6.40;3.83;;;18.90;99.90;;;18.78;97.78;96936.47;4992423;28;20112;-49
2022/08/26 02:09:30;;;;;;;4.85;3.60;;;18.80;99.90;;;18.77;98.15;96942.78;4993501;28;20125;-49
2022/08/26 02:11:55;;;;;;;5.57;3.53;;;18.80;99.90;;;18.74;98.31;96941.22;4978717;28;20161;-48
2022/08/26 02:14:29;;;;;;;4.68;3.88;;;18.80;99.90;;;18.75;97.98;96939.38;4994270;28;20150;-47
2022/08/26 02:16:55;;;;;;;3.95;3.58;;;18.80;99.90;;;18.69;98.16;96938.03;4992520;28;20150;-48
2022/08/26 02:19:30;;;;;;;4.95;4.00;;;18.80;99.90;;;18.64;98.42;96938.38;4996665;28;20112;-48
2022/08/26 02:21:59;;;;;;;5.07;3.90;;;18.70;99.90;;;18.67;99.11;96942.66;4990609;28;20037;-48
2022/08/26 02:24:33;;;;;;;5.22;4.05;;;18.70;99.90;;;18.65;99.68;96944.59;4993550;28;20462;-49
2022/08/26 02:27:00;;;;;;;5.60;4.10;;;18.70;99.90;;;18.62;99.68;96950.16;4976724;28;20037;-51
2022/08/26 02:29:32;;;;;;;4.22;3.83;;;18.70;99.90;;;18.51;99.74;96926.97;4996650;28;21015;-47
2022/08/26 02:31:58;;;;;;;4.47;3.72;;;18.70;99.90;;;18.58;100.00;96949.56;4975980;28;20045;-48
2022/08/26 02:34:33;;;;;;;4.35;3.78;;;18.60;99.90;;;18.57;100.00;96942.50;4972078;28;20061;-48
2022/08/26 02:37:03;;;;;;;6.03;4.18;;;18.60;99.90;;;18.55;100.00;96939.09;4994036;28;20105;-48
2022/08/26 02:39:30;;;;;;;4.72;4.10;;;18.60;99.90;;;18.53;100.00;96940.19;4993998;28;20113;-47
2022/08/26 02:41:58;;;;;;;4.60;4.20;;;18.60;99.90;;;18.51;100.00;96948.31;4992686;28;20041;-51
2022/08/26 02:44:25;;;;;;;4.28;3.78;;;18.50;99.90;;;18.34;100.00;96912.25;4993529;28;20030;-48
2022/08/26 02:46:51;;;;;;;4.10;3.70;;;18.50;99.90;;;18.46;100.00;96934.47;4979002;28;20034;-49
2022/08/26 02:49:18;;;;;;;7.00;4.50;;;18.50;99.90;;;18.42;100.00;96931.19;4996897;28;20021;-48
2022/08/26 02:51:45;;;;;;;5.88;4.22;;;18.50;99.90;;;18.40;100.00;96934.94;4990726;28;20030;-49
2022/08/26 02:54:12;;;;;;;5.07;4.10;;;18.40;99.90;;;18.36;100.00;96931.66;4994925;28;20482;-47
2022/08/26 02:56:38;;;;;;;8.55;4.03;;;18.40;99.90;;;18.34;100.00;96936.25;4992164;28;20045;-47
2022/08/26 02:59:04;;;;;;;4.88;4.22;;;18.40;99.90;;;18.30;100.00;96926.75;4993732;28;20069;-48
2022/08/26 03:01:33;;;;;;;4.20;3.80;;;18.40;99.90;;;18.28;100.00;96926.88;4994729;28;20096;-48
2022/08/26 03:04:02;;;;;;;5.15;4.25;;;18.40;99.90;;;18.26;100.00;96922.63;4993448;28;20044;-48
2022/08/26 03:06:28;;;;;;;5.25;4.40;;;18.30;99.90;;;18.22;100.00;96929.19;4993391;28;20022;-46
2022/08/26 03:08:54;;;;;;;5.55;4.75;;;18.30;99.90;;;18.19;100.00;96913.41;4975468;28;20488;-49
2022/08/26 03:11:21;;;;;;;6.75;4.22;;;18.30;99.90;;;18.10;100.00;96915.78;4995188;28;20033;-47
2022/08/26 03:13:47;;;;;;;4.43;4.03;;;18.20;99.90;;;18.14;100.00;96921.72;4974920;28;20057;-50
2022/08/26 03:16:13;;;;;;;4.53;3.97;;;18.20;99.90;;;18.12;100.00;96918.34;4993248;28;20030;-48
2022/08/26 03:18:39;;;;;;;5.05;4.25;;;18.20;99.90;;;18.09;100.00;96922.09;4993756;28;20033;-48
2022/08/26 03:21:09;;;;;;;5.57;4.57;;;18.10;99.90;;;18.04;100.00;96907.41;4992476;28;20026;-48
2022/08/26 03:23:36;;;;;;;5.15;4.00;;;18.10;99.90;;;18.07;100.00;96912.47;4993869;28;20107;-48
2022/08/26 03:26:03;;;;;;;5.97;4.10;;;18.10;99.90;;;18.04;100.00;96920.75;4995396;28;20250;-49
2022/08/26 03:28:29;;;;;;;5.10;4.07;;;18.10;99.90;;;18.02;100.00;96917.34;4977848;28;20023;-49
2022/08/26 03:30:56;;;;;;;6.40;4.40;;;18.10;99.90;;;17.99;100.00;96917.56;4987089;28;20037;-47
2022/08/26 03:33:23;;;;;;;5.63;4.40;;;18.10;99.90;;;17.98;100.00;96918.50;4974788;28;20390;-48
2022/08/26 03:35:50;;;;;;;5.90;4.53;;;18.00;99.90;;;17.97;100.00;96912.34;4987051;28;20482;-48
2022/08/26 03:38:18;;;;;;;4.45;3.53;;;18.10;99.90;;;17.97;100.00;96917.66;4993898;28;20396;-47
2022/08/26 03:40:44;;;;;;;5.90;4.10;;;18.00;99.90;;;17.96;100.00;96915.13;4974251;28;20029;-47
2022/08/26 03:43:10;;;;;;;4.68;4.07;;;18.00;99.90;;;17.93;100.00;96921.53;4989838;28;20294;-50
2022/08/26 03:45:36;;;;;;;4.43;4.03;;;18.00;99.90;;;17.89;100.00;96920.91;4991470;28;20108;-46
2022/08/26 03:48:03;;;;;;;4.85;4.18;;;18.00;99.90;;;17.89;100.00;96917.38;4989227;28;20104;-47
2022/08/26 03:50:29;;;;;;;4.78;3.88;;;18.00;99.90;;;17.89;100.00;96922.72;4991094;28;20620;-46
2022/08/26 03:52:56;;;;;;;4.30;3.90;;;18.00;99.90;;;17.86;100.00;96926.47;4986150;28;20550;-47
2022/08/26 03:55:26;;;;;;;5.20;4.63;;;17.90;99.90;;;17.86;100.00;96925.63;4993135;28;20084;-47
2022/08/26 03:57:53;;;;;;;6.28;4.53;;;17.90;99.90;;;17.82;100.00;96924.09;4973455;28;20026;-47
2022/08/26 04:00:19;;;;;;;5.22;4.40;;;17.90;99.90;;;17.71;100.00;96915.09;4990534;28;20033;-47
2022/08/26 04:02:49;;;;;;;6.07;4.60;;;17.80;99.90;;;17.71;100.00;96915.09;4969825;28;20034;-48
2022/08/26 04:05:18;;;;;;;6.13;4.63;;;17.80;99.90;;;17.67;100.00;96916.25;4991982;28;20031;-49
2022/08/26 04:07:45;;;;;;;5.13;4.05;;;17.80;99.90;;;17.65;100.00;96917.34;4987539;28;20196;-47
2022/08/26 04:10:16;;;;;;;5.60;4.18;;;17.70;99.90;;;17.62;100.00;96930.91;4975768;28;20026;-47
2022/08/26 04:12:42;;;;;;;5.97;4.45;;;17.70;99.90;;;17.60;100.00;96927.50;4989638;28;20169;-49
2022/08/26 04:15:13;;;;;;;5.60;4.60;;;17.70;99.90;;;17.61;100.00;96924.72;4975605;28;20299;-48
2022/08/26 04:17:39;;;;;;;4.70;3.97;;;17.70;99.90;;;17.47;100.00;96900.88;4973917;28;20107;-48
2022/08/26 04:20:06;;;;;;;5.78;4.47;;;17.70;99.90;;;17.60;100.00;96915.00;4992698;28;20320;-49
2022/08/26 04:22:32;;;;;;;6.32;4.50;;;17.70;99.90;;;17.57;100.00;96920.59;4973633;28;20038;-47
2022/08/26 04:24:58;;;;;;;5.28;4.70;;;17.70;99.90;;;17.53;100.00;96919.09;4987505;28;20128;-46
2022/08/26 04:27:24;;;;;;;5.80;4.40;;;17.60;99.90;;;17.36;100.00;96885.66;4987532;28;20516;-47
2022/08/26 04:29:50;;;;;;;6.03;4.57;;;17.60;99.90;;;17.49;100.00;96915.78;4993028;28;20584;-48
2022/08/26 04:32:16;;;;;;;6.25;4.85;;;17.60;99.90;;;17.50;100.00;96911.34;4980679;28;20405;-49
2022/08/26 04:34:43;;;;;;;5.32;4.30;;;17.60;99.90;;;17.50;100.00;96908.66;4983106;28;20041;-47
2022/08/26 04:37:09;;;;;;;6.47;4.35;;;17.60;99.90;;;17.50;100.00;96914.00;4988032;28;20034;-51
2022/08/26 04:39:35;;;;;;;8.75;4.97;;;17.60;99.90;;;17.47;100.00;96908.88;4982334;28;20038;-47
2022/08/26 04:42:01;;;;;;;4.97;4.03;;;17.60;99.90;;;17.47;100.00;96903.53;4991914;28;20037;-48
2022/08/26 04:44:28;;;;;;;5.43;4.60;;;17.60;99.90;;;17.53;100.00;96908.41;4989109;28;20026;-47
2022/08/26 04:46:55;;;;;;;5.82;4.30;;;17.60;99.90;;;17.56;100.00;96914.38;4992505;28;20077;-48
2022/08/26 04:49:21;;;;;;;5.38;4.00;;;17.60;99.90;;;17.59;100.00;96916.00;4987389;28;20541;-50
2022/08/26 04:51:47;;;;;;;5.53;4.20;;;17.70;99.90;;;17.62;100.00;96922.91;4990875;28;20592;-47
2022/08/26 04:54:14;;;;;;;6.88;4.47;;;17.70;99.90;;;17.64;100.00;96915.63;4990929;28;20027;-47
2022/08/26 04:56:43;;;;;;;5.15;4.32;;;17.70;99.90;;;17.67;100.00;96915.41;4992287;28;20482;-49
2022/08/26 04:59:14;;;;;;;6.18;5.07;;;17.70;99.90;;;17.69;100.00;96914.34;4992154;28;20260;-47
2022/08/26 05:01:43;;;;;;;6.90;4.78;;;17.80;99.90;;;17.74;100.00;96919.34;4990825;28;20038;-47
2022/08/26 05:04:09;;;;;;;5.75;5.07;;;17.80;99.90;;;17.81;100.00;96922.41;4991365;28;20049;-48
2022/08/26 05:06:35;;;;;;;5.63;4.68;;;17.80;99.90;;;17.83;100.00;96924.00;4992568;28;20482;-49
2022/08/26 05:09:00;;;;;;;4.88;4.32;;;17.90;99.90;;;17.89;100.00;96922.72;4990256;28;20038;-47
2022/08/26 05:11:26;;;;;;;5.97;4.50;;;18.00;99.90;;;17.96;100.00;96925.78;4984915;28;20100;-49
2022/08/26 05:13:52;;;;;;;5.65;4.78;;;18.00;99.90;;;18.01;100.00;96929.81;4990298;28;20062;-47
2022/08/26 05:16:18;;;;;;;5.38;4.72;;;18.10;99.90;;;18.09;100.00;96932.78;4989644;28;20025;-48
2022/08/26 05:18:44;;;;;;;5.90;4.50;;;18.20;99.90;;;18.18;100.00;96928.56;4992714;28;20334;-51
2022/08/26 05:21:25;;;;;;;6.05;4.90;;;18.20;99.90;;;18.26;100.00;96930.66;4986454;28;20025;-48
2022/08/26 05:23:53;;;;;;;6.63;5.00;;;18.30;99.90;;;18.28;100.00;96924.22;4992585;28;20030;-48
2022/08/26 05:26:24;;;;;;;6.03;5.15;;;18.40;99.90;;;18.39;100.00;96922.56;4989756;28;20033;-46
2022/08/26 05:28:52;;;;;;;8.70;4.55;;;18.50;99.90;;;18.48;100.00;96930.72;4989223;28;20034;-49
2022/08/26 05:31:22;;;;;;;6.28;4.78;;;18.50;99.90;;;18.55;100.00;96927.56;4973385;28;20073;-47
2022/08/26 05:34:33;;;;;;;7.65;5.07;;;18.60;99.90;;;18.62;100.00;96931.47;4990707;28;20540;-52
2022/08/26 05:36:59;;;;;;;6.65;4.60;;;18.70;99.90;;;18.49;100.00;96905.72;4989866;28;20081;-49
2022/08/26 05:39:24;;;;;;;5.95;4.50;;;18.70;99.90;;;18.66;100.00;96936.47;4994362;28;20037;-49
2022/08/26 05:41:50;;;;;;;5.75;4.40;;;18.70;99.90;;;18.70;100.00;96942.44;4994523;28;20033;-48
2022/08/26 05:44:19;;;;;;;6.00;4.57;;;18.70;99.90;;;18.68;100.00;96933.66;4977202;28;20027;-48
2022/08/26 05:46:45;;;;;;;5.78;4.43;;;18.80;99.90;;;18.75;100.00;96944.72;4992193;28;20022;-47
2022/08/26 05:49:14;;;;;;;7.47;4.80;;;18.80;99.90;;;18.79;100.00;96943.50;4996858;28;20018;-50
2022/08/26 05:51:43;;;;;;;6.35;5.10;;;18.80;99.90;;;18.83;100.00;96948.53;4996363;28;20029;-47
2022/08/26 05:54:10;;;;;;;5.20;4.35;;;18.90;99.90;;;18.82;100.00;96940.66;4995699;28;20382;-51
2022/08/26 05:56:36;;;;;;;5.90;4.40;;;18.90;99.90;;;18.84;100.00;96944.91;4995894;28;20093;-48
2022/08/26 05:59:02;;;;;;;5.18;4.18;;;18.90;99.90;;;18.72;100.00;96923.59;4997642;28;20029;-47
2022/08/26 06:01:28;;;;;;;5.40;3.92;;;18.90;99.90;;;18.69;100.00;96930.88;4977850;28;20390;-48
2022/08/26 06:03:59;;;;;;;9.18;4.32;;;18.90;99.90;;;18.85;100.00;96956.44;4994233;28;20034;-48
2022/08/26 06:06:29;;;;;;;7.35;4.75;;;18.90;99.90;;;18.86;100.00;96959.00;4995506;28;20023;-48
2022/08/26 06:08:57;;;;;;;7.55;4.53;;;18.90;99.90;;;18.74;100.00;96930.53;4979602;28;20237;-47
2022/08/26 06:11:25;;;;;;;6.32;4.05;;;18.90;99.90;;;18.83;100.00;96947.69;4996265;28;20057;-49
2022/08/26 06:13:52;;;;;;;6.72;4.10;;;18.90;99.90;;;18.82;100.00;96948.66;4996588;28;20033;-50
2022/08/26 06:16:22;;;;;;;6.15;4.57;;;18.90;99.90;;;18.86;100.00;96953.66;4994558;28;20598;-52
2022/08/26 06:18:50;;;;;;;6.38;4.47;;;18.90;99.90;;;18.88;100.00;96961.56;4995827;28;20696;-49
2022/08/26 06:21:28;;;;;;;5.75;4.43;;;18.90;99.90;;;18.89;100.00;96963.25;4994845;28;20308;-50
2022/08/26 06:26:51;;;;;;;6.07;4.65;;;18.90;99.90;;;18.96;100.00;96968.97;4981060;28;20021;-47
2022/08/26 06:29:19;;;;;;;7.32;4.78;;;19.00;99.90;;;19.01;100.00;96972.97;4995305;28;20084;-47
2022/08/26 06:31:46;;;;;;;6.70;4.70;;;19.10;99.90;;;19.08;100.00;96978.69;4994225;28;20037;-49
2022/08/26 06:34:12;;;;;;;5.45;4.55;;;19.10;99.90;;;19.06;99.58;96961.94;4996697;28;20097;-49
2022/08/26 06:36:41;;;;;;;5.28;4.40;;;19.10;99.90;;;19.18;99.13;96973.47;4993670;28;20702;-50
2022/08/26 06:39:10;;;;;;;7.03;4.18;;;19.20;99.90;;;19.21;98.92;96982.09;4995618;28;20029;-47
2022/08/26 06:41:38;;;;;;;5.05;4.00;;;19.20;99.90;;;19.22;98.58;96966.91;4979607;28;20027;-47
2022/08/26 06:44:06;;;;;;;6.07;4.60;;;19.30;99.90;;;19.30;98.21;96977.84;4995483;28;20042;-47
2022/08/26 06:46:33;;;;;;;10.27;4.20;;;19.30;99.90;;;19.36;97.14;96976.53;4994806;28;20056;-49
2022/08/26 06:48:59;;;;;;;5.20;4.40;;;19.40;99.90;;;19.41;96.80;96975.19;4994614;28;20022;-48
2022/08/26 06:51:29;;;;;;;6.57;4.40;;;19.40;99.90;;;19.46;96.27;96974.81;4993212;28;20034;-48
2022/08/26 06:53:58;;;;;;;6.43;4.13;;;19.50;99.90;;;19.35;96.76;96953.44;4976885;28;20121;-48
2022/08/26 06:56:52;;;;;;;9.13;4.57;;;19.50;99.90;;;19.51;96.41;96986.00;4979097;28;20026;-50
2022/08/26 06:59:18;;;;;;;8.45;4.60;;;19.50;99.90;;;19.52;96.61;96984.19;4990932;28;20109;-50
2022/08/26 07:01:43;;;;;;;5.40;4.38;;;19.50;99.90;;;19.54;96.10;96979.56;4994808;28;20355;-50
2022/08/26 07:04:11;;;;;;;4.45;3.90;;;19.60;99.90;;;19.61;96.17;96981.63;4994771;28;20133;-49
2022/08/26 07:06:40;;;;;;;4.65;3.80;;;19.60;99.90;;;19.71;95.02;96983.56;4994147;28;20030;-52
2022/08/26 07:09:08;;;;;;;6.13;4.63;;;19.70;99.90;;;19.81;93.89;96981.84;4994305;28;20030;-52
2022/08/26 07:11:36;;;;;;;5.20;4.05;;;19.90;99.90;;;19.88;92.82;96972.34;4991918;28;20041;-49
2022/08/26 07:14:03;;;;;;;6.32;4.47;;;20.00;99.90;;;20.03;91.24;96979.13;4994368;28;20032;-50
2022/08/26 07:16:29;;;;;;;5.82;3.85;;;20.10;99.90;;;20.21;89.98;96982.13;4994511;28;20116;-49
2022/08/26 07:18:56;;;;;;;5.88;3.90;;;20.20;99.90;;;20.38;89.16;96985.22;4995629;28;20053;-51
2022/08/26 07:21:22;;;;;;;6.13;4.20;;;20.40;99.90;;;20.55;88.45;96992.72;4994581;28;20038;-48
2022/08/26 07:23:48;;;;;;;6.25;3.90;;;20.60;99.90;;;20.72;86.97;96987.78;4993133;28;20038;-46
2022/08/26 07:26:22;;;;;;;10.35;4.97;;;20.80;99.90;;;20.85;85.93;96982.22;4995929;28;20018;-46
2022/08/26 07:28:51;;;;;;;5.93;4.35;;;20.90;99.90;;;21.00;85.06;96978.25;4974753;28;20330;-44
2022/08/26 07:31:20;;;;;;;5.75;4.25;;;21.10;99.90;;;21.26;83.84;96989.38;4994295;28;20298;-45
2022/08/26 07:33:47;;;;;;;5.55;3.83;;;21.30;99.90;;;21.44;82.90;96991.44;4994188;28;20473;-48
2022/08/26 07:36:14;;;;;;;11.50;4.80;;;21.50;99.90;;;21.62;81.24;96991.69;4993505;28;20474;-52
2022/08/26 07:38:42;;;;;;;5.75;4.18;;;21.60;99.90;;;21.63;80.34;96969.25;4975434;28;20113;-46
2022/08/26 07:41:07;;;;;;;6.80;3.72;;;21.80;99.90;;;21.92;79.89;96994.31;4979058;28;20084;-44
2022/08/26 07:43:35;;;;;;;8.10;4.20;;;21.90;99.90;;;22.10;77.31;96996.34;4992188;28;20042;-44
2022/08/26 07:46:02;;;;;;;5.72;4.50;;;22.10;99.90;;;22.18;77.77;96999.19;4994194;28;20022;-45
2022/08/26 07:48:28;;;;;;;6.20;3.90;;;22.20;99.90;;;22.24;77.14;96990.56;4975230;28;20022;-48
2022/08/26 07:50:53;;;;;;;6.80;4.25;;;22.30;99.90;;;22.25;77.36;97002.16;4993416;28;20087;-49
2022/08/26 07:53:20;;;;;;;7.80;4.10;;;22.20;99.90;;;22.22;77.70;97005.16;4993331;28;20030;-50
2022/08/26 07:55:46;;;;;;;5.65;4.20;;;22.20;99.90;;;22.20;77.73;97005.28;4994267;28;20053;-43
2022/08/26 07:58:12;;;;;;;7.68;5.30;;;22.10;99.90;;;22.16;77.62;97001.16;4977935;28;20152;-51
2022/08/26 08:00:38;;;;;;;7.80;4.43;;;22.10;99.90;;;22.16;77.86;97009.22;4993691;28;20080;-52
2022/08/26 08:03:05;;;;;;;8.27;5.15;;;22.10;99.90;;;22.18;77.10;97006.38;4977424;28;20534;-47
2022/08/26 08:05:32;;;;;;;7.00;4.57;;;22.20;99.90;;;22.21;77.29;97001.59;5022042;23;20048;-49
2022/08/26 08:08:00;;;;;;;6.40;4.07;;;22.20;99.90;;;22.30;76.09;97011.53;5012648;28;20018;-45
2022/08/26 08:10:28;;;;;;;6.35;4.68;;;22.20;99.90;;;22.39;75.66;97003.63;5001736;28;20056;-49
2022/08/26 08:12:56;;;;;;;6.45;4.65;;;22.30;99.90;;;22.48;74.87;97010.84;5012870;28;20087;-47
2022/08/26 08:15:26;;;;;;;6.28;3.80;;;22.40;99.90;;;22.65;74.87;97012.00;5011968;28;20030;-47
2022/08/26 08:17:53;;;;;;;5.22;3.83;;;22.60;99.90;;;22.78;74.29;96998.25;5014954;28;20251;-49
2022/08/26 08:20:20;;;;;;;4.15;3.45;;;22.70;99.90;;;23.00;73.75;97019.44;4994430;28;20118;-49
2022/08/26 08:22:47;;;;;;;5.43;4.80;;;22.90;99.90;;;23.12;71.61;97012.09;5013161;28;20029;-46
2022/08/26 08:25:13;;;;;;;5.00;4.05;;;23.10;99.90;;;23.26;71.93;96997.34;5012449;28;20064;-49
2022/08/26 08:27:41;;;;;;;5.63;4.30;;;23.20;99.90;;;23.47;71.95;97012.44;5012966;28;20029;-49
2022/08/26 08:30:08;;;;;;;5.10;3.83;;;23.40;99.90;;;23.62;71.10;97000.22;5011241;28;20052;-46
2022/08/26 08:32:37;;;;;;;4.82;3.70;;;23.50;99.90;;;23.76;70.28;96990.78;5014011;28;20036;-49
2022/08/26 08:35:06;;;;;;;4.57;3.75;;;23.80;99.90;;;24.00;69.83;96998.34;4995689;28;20686;-49
2022/08/26 08:37:32;;;;;;;8.88;4.43;;;23.90;99.90;;;24.15;67.99;96996.81;5013345;28;20285;-48
2022/08/26 08:39:58;;;;;;;5.43;3.83;;;24.00;99.90;;;24.32;67.59;96992.47;5012824;28;20489;-49
2022/08/26 08:43:03;;;;;;;8.18;4.88;;;24.20;99.90;;;24.60;65.74;96991.56;5012284;28;20021;-48
2022/08/26 08:45:48;;;;;;;8.23;4.88;;;24.50;99.90;;;24.81;63.80;96989.41;4976892;28;20068;-47
2022/08/26 08:48:28;;;;;;;6.85;4.78;;;24.70;99.90;;;25.04;61.83;97000.53;4996058;28;20021;-49
2022/08/26 08:51:22;;;;;;;5.82;4.50;;;24.90;99.70;;;25.29;61.03;96985.41;4995789;28;20076;-49
2022/08/26 08:53:52;;;;;;;5.18;4.25;;;25.30;99.50;;;25.67;58.91;96999.44;5009957;28;20723;-48
2022/08/26 08:56:31;;;;;;;7.75;4.70;;;25.50;98.40;;;25.92;57.98;96995.00;5013783;28;20034;-49
2022/08/26 08:59:23;;;;;;;7.82;4.32;;;25.80;97.90;;;26.24;56.31;96992.59;5013192;28;20159;-48
2022/08/26 09:02:30;;;;;;;7.53;4.57;;;26.20;97.20;;;26.53;52.74;96991.31;4995942;28;21262;-48
2022/08/26 09:05:09;;;;;;;7.10;4.63;;;26.50;95.80;;;26.71;52.41;96991.19;5013675;28;20046;-47
2022/08/26 09:07:49;;;;;;;6.50;3.90;;;26.70;94.70;;;27.00;51.41;96987.97;4994178;28;20037;-48
2022/08/26 09:10:39;;;;;;;6.00;3.88;;;27.00;94.40;;;27.26;50.59;96989.63;4993542;28;20542;-47
2022/08/26 09:13:13;;;;;;;7.85;3.97;;;27.20;93.80;;;27.37;49.86;96979.31;5016714;28;20034;-48
2022/08/26 09:16:10;;;;;;;5.93;4.72;;;27.40;92.90;;;27.55;49.43;96987.22;5016353;28;20451;-48
2022/08/26 09:19:06;;;;;;;5.10;4.13;;;27.50;92.70;;;27.72;49.35;96985.28;4999081;28;20024;-46
2022/08/26 09:21:32;;;;;;;8.18;4.32;;;27.70;92.50;;;27.84;49.20;96985.78;5014103;28;20032;-48
2022/08/26 09:23:59;;;;;;;7.30;4.30;;;27.80;92.00;;;27.93;47.60;96986.63;4999359;28;20025;-51
2022/08/26 09:26:39;;;;;;;10.50;4.15;;;27.90;91.50;;;28.06;47.81;96994.16;4999291;28;20044;-49
2022/08/26 09:29:19;;;;;;;4.85;4.20;;;28.00;91.00;;;28.22;47.39;96980.53;5016094;28;20056;-49
2022/08/26 09:31:45;;;;;;;5.13;4.00;;;28.20;90.80;;;28.38;47.19;96982.31;5014222;28;20025;-49
2022/08/26 09:34:23;;;;;;;9.55;5.00;;;28.30;90.30;;;28.35;46.23;96982.66;5017784;28;20029;-49
2022/08/26 09:36:55;;;;;;;5.20;4.25;;;28.50;88.50;;;28.56;46.38;96982.03;5015705;28;20042;-48
2022/08/26 09:39:27;;;;;;;10.13;4.55;;;28.70;88.50;;;28.68;45.23;96975.19;5016954;28;20037;-48
2022/08/26 09:42:24;;;;;;;5.10;4.57;;;28.70;87.40;;;28.69;45.42;96971.41;5016598;28;20029;-48
2022/08/26 09:45:07;;;;;;;8.13;4.10;;;28.70;87.10;;;28.75;45.90;96965.28;5014473;28;20465;-48
2022/08/26 09:47:44;;;;;;;7.80;4.20;;;28.70;87.10;;;28.82;45.67;96972.69;5015938;28;20343;-48
2022/08/26 09:50:29;;;;;;;7.43;5.18;;;28.70;86.60;;;28.74;45.28;96969.00;5006956;28;20029;-49
2022/08/26 09:53:26;;;;;;;7.35;4.40;;;28.70;86.20;;;28.72;45.72;96960.22;5015108;28;20029;-48
2022/08/26 09:56:15;;;;;;;5.97;4.43;;;28.70;86.30;;;28.67;46.24;96957.19;5014271;28;20030;-48
2022/08/26 09:58:45;;;;;;;10.60;5.43;;;28.70;86.60;;;28.51;45.70;96947.28;5014740;28;20482;-49
2022/08/26 10:01:35;;;;;;;8.70;5.75;;;28.60;85.00;;;28.45;46.80;96936.34;5013934;28;20049;-49
2022/08/26 10:04:13;;;;;;;15.02;7.30;;;28.40;86.40;;;28.28;46.67;96928.31;5014114;28;20042;-45
2022/08/26 10:06:58;;;;;;;15.18;7.20;;;28.40;86.10;;;28.09;47.27;96920.66;5012870;28;20037;-48
2022/08/26 10:09:25;;;;;;;15.32;6.95;;;28.20;86.60;;;27.84;48.04;96922.63;5016014;28;20025;-48
2022/08/26 10:11:56;;;;;;;19.15;6.70;;;27.90;86.90;;;27.76;49.10;96926.19;4996629;28;20017;-48
2022/08/26 10:14:30;;;;;;;10.25;6.32;;;27.80;88.40;;;27.75;49.05;96930.78;4980059;28;20022;-46
2022/08/26 10:17:10;;;;;;;9.52;5.70;;;27.70;88.50;;;27.77;48.41;96920.59;5014333;28;20026;-47
2022/08/26 10:19:43;;;;;;;8.70;5.57;;;27.70;88.20;;;27.80;49.03;96922.13;4994903;28;20033;-48
2022/08/26 10:22:44;;;;;;;9.73;6.18;;;27.70;88.30;;;27.79;48.19;96917.72;5009541;28;20036;-48
2022/08/26 10:25:17;;;;;;;12.77;5.57;;;27.70;87.50;;;27.88;48.17;96913.94;5001757;28;20112;-48
2022/08/26 10:28:04;;;;;;;15.15;6.13;;;27.80;87.70;;;27.82;47.50;96909.25;5014634;28;20044;-48
2022/08/26 10:30:43;;;;;;;10.55;6.38;;;27.80;86.30;;;27.65;47.54;96904.91;4994781;28;20409;-48
2022/08/26 10:33:14;;;;;;;11.23;5.97;;;27.70;86.00;;;27.67;47.59;96905.59;5013039;28;20021;-48